sensor_id;sensor_type;location;lat;lon;timestamp;P1;durP1;ratioP1;P2;durP2;ratioP2
57389;SDS011;43217;52.694;6.214;2023-03-15T00:00:45;2.77;;;1.17;;
57389;SDS011;43217;52.694;6.214;2023-03-15T00:03:11;4.00;;;1.27;;
57389;SDS011;43217;52.694;6.214;2023-03-15T00:05:47;2.67;;;1.27;;
57389;SDS011;43217;52.694;6.214;2023-03-15T00:08:14;3.35;;;1.20;;
57389;SDS011;43217;52.694;6.214;2023-03-15T00:10:43;6.65;;;1.40;;
57389;SDS011;43217;52.694;6.214;2023-03-15T00:13:10;3.58;;;1.17;;
57389;SDS011;43217;52.694;6.214;2023-03-15T00:15:43;3.28;;;1.27;;
57389;SDS011;43217;52.694;6.214;2023-03-15T00:18:13;3.15;;;1.10;;
57389;SDS011;43217;52.694;6.214;2023-03-15T00:20:39;5.88;;;1.60;;
57389;SDS011;43217;52.694;6.214;2023-03-15T00:23:05;3.80;;;1.30;;
57389;SDS011;43217;52.694;6.214;2023-03-15T00:25:30;4.88;;;1.27;;
57389;SDS011;43217;52.694;6.214;2023-03-15T00:27:56;4.95;;;1.38;;
57389;SDS011;43217;52.694;6.214;2023-03-15T00:30:21;3.88;;;1.30;;
57389;SDS011;43217;52.694;6.214;2023-03-15T00:32:47;4.97;;;1.52;;
57389;SDS011;43217;52.694;6.214;2023-03-15T00:35:13;4.75;;;1.50;;
57389;SDS011;43217;52.694;6.214;2023-03-15T00:37:42;3.88;;;1.27;;
57389;SDS011;43217;52.694;6.214;2023-03-15T00:40:08;3.67;;;1.30;;
57389;SDS011;43217;52.694;6.214;2023-03-15T00:42:34;6.05;;;1.40;;
57389;SDS011;43217;52.694;6.214;2023-03-15T00:45:00;5.95;;;1.10;;
57389;SDS011;43217;52.694;6.214;2023-03-15T00:47:25;6.20;;;1.13;;
57389;SDS011;43217;52.694;6.214;2023-03-15T00:49:51;4.40;;;1.15;;
57389;SDS011;43217;52.694;6.214;2023-03-15T00:52:17;5.35;;;1.33;;
57389;SDS011;43217;52.694;6.214;2023-03-15T00:54:43;5.82;;;1.20;;
57389;SDS011;43217;52.694;6.214;2023-03-15T00:57:08;6.88;;;1.35;;
57389;SDS011;43217;52.694;6.214;2023-03-15T00:59:34;3.60;;;1.50;;
57389;SDS011;43217;52.694;6.214;2023-03-15T01:02:03;7.20;;;1.95;;
57389;SDS011;43217;52.694;6.214;2023-03-15T01:04:29;7.18;;;2.63;;
57389;SDS011;43217;52.694;6.214;2023-03-15T01:06:56;6.95;;;1.73;;
57389;SDS011;43217;52.694;6.214;2023-03-15T01:09:23;5.28;;;2.00;;
57389;SDS011;43217;52.694;6.214;2023-03-15T01:11:49;4.35;;;1.65;;
57389;SDS011;43217;52.694;6.214;2023-03-15T01:14:15;4.50;;;1.50;;
57389;SDS011;43217;52.694;6.214;2023-03-15T01:16:42;3.72;;;1.17;;
57389;SDS011;43217;52.694;6.214;2023-03-15T01:19:09;6.70;;;1.30;;
57389;SDS011;43217;52.694;6.214;2023-03-15T01:21:36;6.27;;;1.60;;
57389;SDS011;43217;52.694;6.214;2023-03-15T01:24:01;3.83;;;1.20;;
57389;SDS011;43217;52.694;6.214;2023-03-15T01:26:27;7.97;;;1.77;;
57389;SDS011;43217;52.694;6.214;2023-03-15T01:28:52;7.10;;;1.17;;
57389;SDS011;43217;52.694;6.214;2023-03-15T01:31:23;2.70;;;1.15;;
57389;SDS011;43217;52.694;6.214;2023-03-15T01:33:54;5.50;;;1.40;;
57389;SDS011;43217;52.694;6.214;2023-03-15T01:36:21;4.53;;;1.25;;
57389;SDS011;43217;52.694;6.214;2023-03-15T01:38:47;3.70;;;1.50;;
57389;SDS011;43217;52.694;6.214;2023-03-15T01:41:17;5.38;;;1.50;;
57389;SDS011;43217;52.694;6.214;2023-03-15T01:43:43;5.53;;;1.40;;
57389;SDS011;43217;52.694;6.214;2023-03-15T01:54:06;6.90;;;1.70;;
57389;SDS011;43217;52.694;6.214;2023-03-15T01:56:37;6.75;;;1.73;;
57389;SDS011;43217;52.694;6.214;2023-03-15T01:59:11;6.78;;;1.35;;
57389;SDS011;43217;52.694;6.214;2023-03-15T02:01:41;5.65;;;1.17;;
57389;SDS011;43217;52.694;6.214;2023-03-15T02:04:10;5.10;;;1.40;;
57389;SDS011;43217;52.694;6.214;2023-03-15T02:06:41;7.57;;;1.38;;
57389;SDS011;43217;52.694;6.214;2023-03-15T02:09:11;5.35;;;1.63;;
57389;SDS011;43217;52.694;6.214;2023-03-15T02:11:39;7.10;;;1.45;;
57389;SDS011;43217;52.694;6.214;2023-03-15T02:14:06;9.38;;;1.67;;
57389;SDS011;43217;52.694;6.214;2023-03-15T02:16:33;6.32;;;1.30;;
57389;SDS011;43217;52.694;6.214;2023-03-15T02:18:59;5.18;;;1.20;;
57389;SDS011;43217;52.694;6.214;2023-03-15T02:21:32;5.43;;;1.13;;
57389;SDS011;43217;52.694;6.214;2023-03-15T02:26:54;7.18;;;1.33;;
57389;SDS011;43217;52.694;6.214;2023-03-15T02:29:22;9.18;;;1.40;;
57389;SDS011;43217;52.694;6.214;2023-03-15T02:31:50;6.00;;;1.30;;
57389;SDS011;43217;52.694;6.214;2023-03-15T02:34:17;7.90;;;1.70;;
57389;SDS011;43217;52.694;6.214;2023-03-15T02:36:42;6.97;;;1.75;;
57389;SDS011;43217;52.694;6.214;2023-03-15T02:39:14;6.05;;;1.60;;
57389;SDS011;43217;52.694;6.214;2023-03-15T02:41:49;5.55;;;1.48;;
57389;SDS011;43217;52.694;6.214;2023-03-15T02:44:22;5.72;;;1.20;;
57389;SDS011;43217;52.694;6.214;2023-03-15T02:46:57;9.68;;;1.70;;
57389;SDS011;43217;52.694;6.214;2023-03-15T02:49:28;7.47;;;2.75;;
57389;SDS011;43217;52.694;6.214;2023-03-15T02:51:56;6.85;;;1.40;;
57389;SDS011;43217;52.694;6.214;2023-03-15T02:54:22;9.52;;;1.67;;
57389;SDS011;43217;52.694;6.214;2023-03-15T02:56:47;8.35;;;1.73;;
57389;SDS011;43217;52.694;6.214;2023-03-15T02:59:13;7.13;;;1.20;;
57389;SDS011;43217;52.694;6.214;2023-03-15T03:01:39;7.30;;;2.13;;
57389;SDS011;43217;52.694;6.214;2023-03-15T03:04:04;7.90;;;1.83;;
57389;SDS011;43217;52.694;6.214;2023-03-15T03:06:31;6.18;;;1.65;;
57389;SDS011;43217;52.694;6.214;2023-03-15T03:08:57;6.22;;;1.50;;
57389;SDS011;43217;52.694;6.214;2023-03-15T03:11:23;6.38;;;1.50;;
57389;SDS011;43217;52.694;6.214;2023-03-15T03:13:48;7.53;;;1.60;;
57389;SDS011;43217;52.694;6.214;2023-03-15T03:16:15;6.63;;;1.45;;
57389;SDS011;43217;52.694;6.214;2023-03-15T03:18:40;6.00;;;1.73;;
57389;SDS011;43217;52.694;6.214;2023-03-15T03:21:06;7.28;;;1.58;;
57389;SDS011;43217;52.694;6.214;2023-03-15T03:23:33;6.13;;;1.60;;
57389;SDS011;43217;52.694;6.214;2023-03-15T03:26:00;5.22;;;1.38;;
57389;SDS011;43217;52.694;6.214;2023-03-15T03:28:27;4.72;;;1.25;;
57389;SDS011;43217;52.694;6.214;2023-03-15T03:30:54;6.28;;;1.42;;
57389;SDS011;43217;52.694;6.214;2023-03-15T03:33:21;5.55;;;1.38;;
57389;SDS011;43217;52.694;6.214;2023-03-15T03:35:47;7.45;;;1.73;;
57389;SDS011;43217;52.694;6.214;2023-03-15T03:38:13;5.32;;;1.38;;
57389;SDS011;43217;52.694;6.214;2023-03-15T03:40:41;4.20;;;1.20;;
57389;SDS011;43217;52.694;6.214;2023-03-15T03:43:07;7.43;;;1.38;;
57389;SDS011;43217;52.694;6.214;2023-03-15T03:45:34;3.85;;;1.40;;
57389;SDS011;43217;52.694;6.214;2023-03-15T03:48:00;6.53;;;1.50;;
57389;SDS011;43217;52.694;6.214;2023-03-15T03:50:26;5.55;;;1.40;;
57389;SDS011;43217;52.694;6.214;2023-03-15T03:52:52;6.68;;;1.80;;
57389;SDS011;43217;52.694;6.214;2023-03-15T03:55:17;6.10;;;1.23;;
57389;SDS011;43217;52.694;6.214;2023-03-15T03:57:43;8.27;;;1.98;;
57389;SDS011;43217;52.694;6.214;2023-03-15T04:00:10;5.78;;;1.60;;
57389;SDS011;43217;52.694;6.214;2023-03-15T04:02:38;9.60;;;1.77;;
57389;SDS011;43217;52.694;6.214;2023-03-15T04:05:06;8.80;;;2.45;;
57389;SDS011;43217;52.694;6.214;2023-03-15T04:07:35;5.75;;;1.63;;
57389;SDS011;43217;52.694;6.214;2023-03-15T04:10:02;6.50;;;1.58;;
57389;SDS011;43217;52.694;6.214;2023-03-15T04:12:28;10.00;;;1.92;;
57389;SDS011;43217;52.694;6.214;2023-03-15T04:14:54;7.15;;;1.80;;
57389;SDS011;43217;52.694;6.214;2023-03-15T04:17:19;7.93;;;1.70;;
57389;SDS011;43217;52.694;6.214;2023-03-15T04:19:45;8.60;;;1.63;;
57389;SDS011;43217;52.694;6.214;2023-03-15T04:22:11;7.20;;;1.80;;
57389;SDS011;43217;52.694;6.214;2023-03-15T04:24:40;5.18;;;1.40;;
57389;SDS011;43217;52.694;6.214;2023-03-15T04:27:06;9.70;;;1.60;;
57389;SDS011;43217;52.694;6.214;2023-03-15T04:29:32;5.07;;;1.40;;
57389;SDS011;43217;52.694;6.214;2023-03-15T04:31:58;6.40;;;1.50;;
57389;SDS011;43217;52.694;6.214;2023-03-15T04:34:30;4.65;;;1.30;;
57389;SDS011;43217;52.694;6.214;2023-03-15T04:36:55;8.05;;;1.42;;
57389;SDS011;43217;52.694;6.214;2023-03-15T04:39:21;7.63;;;1.70;;
57389;SDS011;43217;52.694;6.214;2023-03-15T04:41:47;6.60;;;1.83;;
57389;SDS011;43217;52.694;6.214;2023-03-15T04:44:14;7.72;;;1.90;;
57389;SDS011;43217;52.694;6.214;2023-03-15T04:46:40;7.82;;;1.70;;
57389;SDS011;43217;52.694;6.214;2023-03-15T04:49:07;5.40;;;1.45;;
57389;SDS011;43217;52.694;6.214;2023-03-15T04:51:33;4.68;;;1.30;;
57389;SDS011;43217;52.694;6.214;2023-03-15T04:53:59;7.30;;;1.75;;
57389;SDS011;43217;52.694;6.214;2023-03-15T04:56:25;5.93;;;1.55;;
57389;SDS011;43217;52.694;6.214;2023-03-15T04:58:52;5.13;;;1.30;;
57389;SDS011;43217;52.694;6.214;2023-03-15T05:01:17;6.82;;;1.98;;
57389;SDS011;43217;52.694;6.214;2023-03-15T05:03:43;8.43;;;2.70;;
57389;SDS011;43217;52.694;6.214;2023-03-15T05:06:09;4.72;;;1.50;;
57389;SDS011;43217;52.694;6.214;2023-03-15T05:08:35;3.70;;;1.67;;
57389;SDS011;43217;52.694;6.214;2023-03-15T05:11:04;5.43;;;1.50;;
57389;SDS011;43217;52.694;6.214;2023-03-15T05:13:30;5.38;;;1.63;;
57389;SDS011;43217;52.694;6.214;2023-03-15T05:15:56;7.95;;;1.77;;
57389;SDS011;43217;52.694;6.214;2023-03-15T05:18:22;5.78;;;1.60;;
57389;SDS011;43217;52.694;6.214;2023-03-15T05:20:48;6.03;;;1.58;;
57389;SDS011;43217;52.694;6.214;2023-03-15T05:23:14;4.05;;;1.38;;
57389;SDS011;43217;52.694;6.214;2023-03-15T05:25:40;2.83;;;1.10;;
57389;SDS011;43217;52.694;6.214;2023-03-15T05:28:06;5.75;;;1.48;;
57389;SDS011;43217;52.694;6.214;2023-03-15T05:30:31;7.38;;;1.50;;
57389;SDS011;43217;52.694;6.214;2023-03-15T05:32:57;8.52;;;1.50;;
57389;SDS011;43217;52.694;6.214;2023-03-15T05:35:23;6.80;;;1.10;;
57389;SDS011;43217;52.694;6.214;2023-03-15T05:37:51;3.78;;;1.35;;
57389;SDS011;43217;52.694;6.214;2023-03-15T05:40:19;4.47;;;1.02;;
57389;SDS011;43217;52.694;6.214;2023-03-15T05:42:44;5.10;;;1.27;;
57389;SDS011;43217;52.694;6.214;2023-03-15T05:45:10;5.63;;;1.50;;
57389;SDS011;43217;52.694;6.214;2023-03-15T05:47:36;4.43;;;1.00;;
57389;SDS011;43217;52.694;6.214;2023-03-15T05:50:02;4.07;;;1.20;;
57389;SDS011;43217;52.694;6.214;2023-03-15T05:52:29;4.57;;;1.10;;
57389;SDS011;43217;52.694;6.214;2023-03-15T05:54:55;4.15;;;1.10;;
57389;SDS011;43217;52.694;6.214;2023-03-15T05:57:21;3.83;;;1.23;;
57389;SDS011;43217;52.694;6.214;2023-03-15T05:59:46;2.63;;;1.25;;
57389;SDS011;43217;52.694;6.214;2023-03-15T06:02:12;4.38;;;1.10;;
57389;SDS011;43217;52.694;6.214;2023-03-15T06:04:38;4.85;;;1.38;;
57389;SDS011;43217;52.694;6.214;2023-03-15T06:07:04;4.72;;;1.10;;
57389;SDS011;43217;52.694;6.214;2023-03-15T06:09:29;6.72;;;1.60;;
57389;SDS011;43217;52.694;6.214;2023-03-15T06:11:55;6.78;;;1.55;;
57389;SDS011;43217;52.694;6.214;2023-03-15T06:14:22;7.78;;;2.10;;
57389;SDS011;43217;52.694;6.214;2023-03-15T06:16:49;5.05;;;1.27;;
57389;SDS011;43217;52.694;6.214;2023-03-15T06:19:14;5.07;;;1.50;;
57389;SDS011;43217;52.694;6.214;2023-03-15T06:21:40;4.93;;;1.35;;
57389;SDS011;43217;52.694;6.214;2023-03-15T06:24:06;5.28;;;1.60;;
57389;SDS011;43217;52.694;6.214;2023-03-15T06:26:31;7.10;;;1.98;;
57389;SDS011;43217;52.694;6.214;2023-03-15T06:28:57;4.45;;;1.73;;
57389;SDS011;43217;52.694;6.214;2023-03-15T06:31:23;5.28;;;1.73;;
57389;SDS011;43217;52.694;6.214;2023-03-15T06:33:48;3.67;;;1.52;;
57389;SDS011;43217;52.694;6.214;2023-03-15T06:36:14;5.57;;;1.48;;
57389;SDS011;43217;52.694;6.214;2023-03-15T06:38:40;4.97;;;1.42;;
57389;SDS011;43217;52.694;6.214;2023-03-15T06:41:06;4.65;;;1.25;;
57389;SDS011;43217;52.694;6.214;2023-03-15T06:43:32;5.25;;;1.30;;
57389;SDS011;43217;52.694;6.214;2023-03-15T06:45:58;4.13;;;0.90;;
57389;SDS011;43217;52.694;6.214;2023-03-15T06:48:24;5.00;;;1.42;;
57389;SDS011;43217;52.694;6.214;2023-03-15T06:50:50;3.25;;;1.13;;
57389;SDS011;43217;52.694;6.214;2023-03-15T06:53:16;4.78;;;1.25;;
57389;SDS011;43217;52.694;6.214;2023-03-15T06:55:42;4.63;;;1.23;;
57389;SDS011;43217;52.694;6.214;2023-03-15T06:58:08;4.90;;;1.42;;
57389;SDS011;43217;52.694;6.214;2023-03-15T07:00:33;4.50;;;1.20;;
57389;SDS011;43217;52.694;6.214;2023-03-15T07:03:00;4.80;;;1.23;;
57389;SDS011;43217;52.694;6.214;2023-03-15T07:05:25;3.33;;;1.38;;
57389;SDS011;43217;52.694;6.214;2023-03-15T07:07:51;5.82;;;1.23;;
57389;SDS011;43217;52.694;6.214;2023-03-15T07:10:17;3.13;;;1.60;;
57389;SDS011;43217;52.694;6.214;2023-03-15T07:12:43;10.15;;;1.30;;
57389;SDS011;43217;52.694;6.214;2023-03-15T07:15:08;5.60;;;1.17;;
57389;SDS011;43217;52.694;6.214;2023-03-15T07:17:34;4.00;;;1.17;;
57389;SDS011;43217;52.694;6.214;2023-03-15T07:20:02;6.22;;;1.35;;
57389;SDS011;43217;52.694;6.214;2023-03-15T07:22:30;3.90;;;0.95;;
57389;SDS011;43217;52.694;6.214;2023-03-15T07:24:56;5.13;;;1.33;;
57389;SDS011;43217;52.694;6.214;2023-03-15T07:27:23;4.07;;;1.27;;
57389;SDS011;43217;52.694;6.214;2023-03-15T07:29:48;6.93;;;1.98;;
57389;SDS011;43217;52.694;6.214;2023-03-15T07:32:14;6.13;;;2.25;;
57389;SDS011;43217;52.694;6.214;2023-03-15T07:34:40;6.18;;;2.40;;
57389;SDS011;43217;52.694;6.214;2023-03-15T07:37:06;6.03;;;2.25;;
57389;SDS011;43217;52.694;6.214;2023-03-15T07:39:32;5.78;;;2.30;;
57389;SDS011;43217;52.694;6.214;2023-03-15T07:41:57;7.43;;;2.10;;
57389;SDS011;43217;52.694;6.214;2023-03-15T07:44:24;6.05;;;2.30;;
57389;SDS011;43217;52.694;6.214;2023-03-15T07:46:49;6.72;;;2.38;;
57389;SDS011;43217;52.694;6.214;2023-03-15T07:49:15;6.03;;;2.70;;
57389;SDS011;43217;52.694;6.214;2023-03-15T07:51:41;7.63;;;3.20;;
57389;SDS011;43217;52.694;6.214;2023-03-15T07:54:07;11.75;;;4.10;;
57389;SDS011;43217;52.694;6.214;2023-03-15T07:56:33;13.63;;;4.75;;
57389;SDS011;43217;52.694;6.214;2023-03-15T07:58:58;9.77;;;3.97;;
57389;SDS011;43217;52.694;6.214;2023-03-15T08:01:25;6.38;;;2.15;;
57389;SDS011;43217;52.694;6.214;2023-03-15T08:03:50;6.78;;;2.83;;
57389;SDS011;43217;52.694;6.214;2023-03-15T08:06:16;3.55;;;1.30;;
57389;SDS011;43217;52.694;6.214;2023-03-15T08:08:42;5.85;;;1.80;;
57389;SDS011;43217;52.694;6.214;2023-03-15T08:11:07;5.72;;;1.30;;
57389;SDS011;43217;52.694;6.214;2023-03-15T08:13:33;4.90;;;1.40;;
57389;SDS011;43217;52.694;6.214;2023-03-15T08:16:01;4.40;;;1.10;;
57389;SDS011;43217;52.694;6.214;2023-03-15T08:18:31;8.55;;;1.65;;
57389;SDS011;43217;52.694;6.214;2023-03-15T08:21:00;6.18;;;1.02;;
57389;SDS011;43217;52.694;6.214;2023-03-15T08:23:26;6.97;;;1.67;;
57389;SDS011;43217;52.694;6.214;2023-03-15T08:25:51;5.22;;;1.45;;
57389;SDS011;43217;52.694;6.214;2023-03-15T08:28:17;6.40;;;1.45;;
57389;SDS011;43217;52.694;6.214;2023-03-15T08:30:43;5.38;;;1.20;;
57389;SDS011;43217;52.694;6.214;2023-03-15T08:33:08;6.70;;;1.52;;
57389;SDS011;43217;52.694;6.214;2023-03-15T08:35:36;4.32;;;1.00;;
57389;SDS011;43217;52.694;6.214;2023-03-15T08:38:02;3.63;;;1.30;;
57389;SDS011;43217;52.694;6.214;2023-03-15T08:40:28;5.80;;;1.40;;
57389;SDS011;43217;52.694;6.214;2023-03-15T08:42:54;6.70;;;1.63;;
57389;SDS011;43217;52.694;6.214;2023-03-15T08:45:21;7.10;;;1.80;;
57389;SDS011;43217;52.694;6.214;2023-03-15T08:47:48;3.83;;;1.08;;
57389;SDS011;43217;52.694;6.214;2023-03-15T08:50:24;4.80;;;1.10;;
57389;SDS011;43217;52.694;6.214;2023-03-15T08:52:51;4.60;;;1.38;;
57389;SDS011;43217;52.694;6.214;2023-03-15T08:55:16;6.50;;;1.30;;
57389;SDS011;43217;52.694;6.214;2023-03-15T08:57:42;4.38;;;1.38;;
57389;SDS011;43217;52.694;6.214;2023-03-15T09:00:09;3.42;;;1.25;;
57389;SDS011;43217;52.694;6.214;2023-03-15T09:02:48;7.55;;;1.30;;
57389;SDS011;43217;52.694;6.214;2023-03-15T09:05:14;4.70;;;1.30;;
57389;SDS011;43217;52.694;6.214;2023-03-15T09:07:41;4.80;;;1.45;;
57389;SDS011;43217;52.694;6.214;2023-03-15T09:10:08;5.07;;;1.83;;
57389;SDS011;43217;52.694;6.214;2023-03-15T09:12:44;6.35;;;2.55;;
57389;SDS011;43217;52.694;6.214;2023-03-15T09:15:12;5.82;;;2.10;;
57389;SDS011;43217;52.694;6.214;2023-03-15T09:17:39;7.35;;;1.58;;
57389;SDS011;43217;52.694;6.214;2023-03-15T09:20:06;7.70;;;1.85;;
57389;SDS011;43217;52.694;6.214;2023-03-15T09:22:35;7.07;;;1.58;;
57389;SDS011;43217;52.694;6.214;2023-03-15T09:25:01;7.88;;;1.40;;
57389;SDS011;43217;52.694;6.214;2023-03-15T09:27:31;4.88;;;2.05;;
57389;SDS011;43217;52.694;6.214;2023-03-15T09:29:57;6.10;;;2.08;;
57389;SDS011;43217;52.694;6.214;2023-03-15T09:32:22;4.53;;;1.40;;
57389;SDS011;43217;52.694;6.214;2023-03-15T09:34:48;7.80;;;1.85;;
57389;SDS011;43217;52.694;6.214;2023-03-15T09:37:15;5.53;;;2.00;;
57389;SDS011;43217;52.694;6.214;2023-03-15T09:39:41;8.60;;;2.08;;
57389;SDS011;43217;52.694;6.214;2023-03-15T09:42:12;6.50;;;1.77;;
57389;SDS011;43217;52.694;6.214;2023-03-15T09:44:55;5.80;;;2.00;;
57389;SDS011;43217;52.694;6.214;2023-03-15T09:52:50;4.97;;;1.60;;
57389;SDS011;43217;52.694;6.214;2023-03-15T09:55:26;5.32;;;1.75;;
57389;SDS011;43217;52.694;6.214;2023-03-15T09:57:55;4.65;;;1.90;;
57389;SDS011;43217;52.694;6.214;2023-03-15T10:00:30;3.90;;;1.45;;
57389;SDS011;43217;52.694;6.214;2023-03-15T10:03:00;5.50;;;1.67;;
57389;SDS011;43217;52.694;6.214;2023-03-15T10:05:43;4.63;;;1.30;;
57389;SDS011;43217;52.694;6.214;2023-03-15T10:08:16;4.15;;;1.33;;
57389;SDS011;43217;52.694;6.214;2023-03-15T10:10:46;5.45;;;1.27;;
57389;SDS011;43217;52.694;6.214;2023-03-15T10:16:52;3.47;;;1.20;;
57389;SDS011;43217;52.694;6.214;2023-03-15T10:25:03;6.55;;;1.50;;
57389;SDS011;43217;52.694;6.214;2023-03-15T10:27:37;5.13;;;1.73;;
57389;SDS011;43217;52.694;6.214;2023-03-15T10:32:44;4.20;;;1.10;;
57389;SDS011;43217;52.694;6.214;2023-03-15T10:35:18;5.95;;;1.30;;
57389;SDS011;43217;52.694;6.214;2023-03-15T10:37:47;5.03;;;1.52;;
57389;SDS011;43217;52.694;6.214;2023-03-15T10:40:13;3.92;;;1.17;;
57389;SDS011;43217;52.694;6.214;2023-03-15T10:42:41;10.30;;;1.93;;
57389;SDS011;43217;52.694;6.214;2023-03-15T10:47:45;4.00;;;1.17;;
57389;SDS011;43217;52.694;6.214;2023-03-15T10:50:45;5.97;;;1.20;;
57389;SDS011;43217;52.694;6.214;2023-03-15T10:53:15;3.72;;;1.30;;
57389;SDS011;43217;52.694;6.214;2023-03-15T10:58:18;6.53;;;1.30;;
57389;SDS011;43217;52.694;6.214;2023-03-15T11:00:50;3.72;;;1.20;;
57389;SDS011;43217;52.694;6.214;2023-03-15T11:03:23;4.50;;;1.20;;
57389;SDS011;43217;52.694;6.214;2023-03-15T11:05:51;7.35;;;1.40;;
57389;SDS011;43217;52.694;6.214;2023-03-15T11:08:19;5.93;;;1.40;;
57389;SDS011;43217;52.694;6.214;2023-03-15T11:10:59;6.13;;;1.45;;
57389;SDS011;43217;52.694;6.214;2023-03-15T11:15:53;6.05;;;1.27;;
57389;SDS011;43217;52.694;6.214;2023-03-15T11:18:54;6.03;;;1.42;;
57389;SDS011;43217;52.694;6.214;2023-03-15T11:21:29;5.28;;;1.35;;
57389;SDS011;43217;52.694;6.214;2023-03-15T11:23:57;4.35;;;1.40;;
57389;SDS011;43217;52.694;6.214;2023-03-15T11:26:26;5.65;;;1.35;;
57389;SDS011;43217;52.694;6.214;2023-03-15T11:28:58;3.97;;;1.10;;
57389;SDS011;43217;52.694;6.214;2023-03-15T11:31:45;5.15;;;1.40;;
57389;SDS011;43217;52.694;6.214;2023-03-15T11:34:23;5.30;;;1.63;;
57389;SDS011;43217;52.694;6.214;2023-03-15T11:36:51;3.17;;;1.00;;
57389;SDS011;43217;52.694;6.214;2023-03-15T11:39:40;5.07;;;1.08;;
57389;SDS011;43217;52.694;6.214;2023-03-15T11:42:43;3.58;;;1.20;;
57389;SDS011;43217;52.694;6.214;2023-03-15T11:45:42;2.35;;;0.93;;
57389;SDS011;43217;52.694;6.214;2023-03-15T11:48:26;5.53;;;1.15;;
57389;SDS011;43217;52.694;6.214;2023-03-15T11:51:06;4.38;;;1.33;;
57389;SDS011;43217;52.694;6.214;2023-03-15T11:53:40;5.57;;;1.20;;
57389;SDS011;43217;52.694;6.214;2023-03-15T11:59:14;5.93;;;1.65;;
57389;SDS011;43217;52.694;6.214;2023-03-15T12:04:49;2.90;;;1.20;;
57389;SDS011;43217;52.694;6.214;2023-03-15T12:09:48;3.88;;;1.85;;
57389;SDS011;43217;52.694;6.214;2023-03-15T12:15:04;7.28;;;1.60;;
57389;SDS011;43217;52.694;6.214;2023-03-15T12:17:56;3.75;;;1.45;;
57389;SDS011;43217;52.694;6.214;2023-03-15T12:20:37;5.32;;;1.35;;
57389;SDS011;43217;52.694;6.214;2023-03-15T12:25:52;4.55;;;1.15;;
57389;SDS011;43217;52.694;6.214;2023-03-15T12:28:49;4.03;;;1.17;;
57389;SDS011;43217;52.694;6.214;2023-03-15T12:31:24;4.32;;;1.17;;
57389;SDS011;43217;52.694;6.214;2023-03-15T12:33:54;3.88;;;0.95;;
57389;SDS011;43217;52.694;6.214;2023-03-15T12:36:28;2.33;;;0.90;;
57389;SDS011;43217;52.694;6.214;2023-03-15T12:47:12;5.38;;;1.58;;
57389;SDS011;43217;52.694;6.214;2023-03-15T12:49:42;5.18;;;1.52;;
57389;SDS011;43217;52.694;6.214;2023-03-15T12:55:10;4.20;;;1.67;;
57389;SDS011;43217;52.694;6.214;2023-03-15T12:57:44;5.45;;;1.50;;
57389;SDS011;43217;52.694;6.214;2023-03-15T13:00:16;5.75;;;1.30;;
57389;SDS011;43217;52.694;6.214;2023-03-15T13:02:49;4.55;;;1.50;;
57389;SDS011;43217;52.694;6.214;2023-03-15T13:05:19;7.10;;;1.90;;
57389;SDS011;43217;52.694;6.214;2023-03-15T13:18:31;4.05;;;1.35;;
57389;SDS011;43217;52.694;6.214;2023-03-15T13:21:14;4.13;;;1.20;;
57389;SDS011;43217;52.694;6.214;2023-03-15T13:23:48;6.07;;;1.25;;
57389;SDS011;43217;52.694;6.214;2023-03-15T13:26:30;2.55;;;1.10;;
57389;SDS011;43217;52.694;6.214;2023-03-15T13:29:09;4.57;;;1.10;;
57389;SDS011;43217;52.694;6.214;2023-03-15T13:31:41;3.17;;;0.85;;
57389;SDS011;43217;52.694;6.214;2023-03-15T13:36:45;2.53;;;0.98;;
57389;SDS011;43217;52.694;6.214;2023-03-15T13:39:20;4.53;;;1.10;;
57389;SDS011;43217;52.694;6.214;2023-03-15T13:41:48;5.93;;;1.50;;
57389;SDS011;43217;52.694;6.214;2023-03-15T13:44:21;3.80;;;1.02;;
57389;SDS011;43217;52.694;6.214;2023-03-15T13:46:49;3.47;;;1.13;;
57389;SDS011;43217;52.694;6.214;2023-03-15T13:49:16;5.28;;;1.00;;
57389;SDS011;43217;52.694;6.214;2023-03-15T13:51:42;2.97;;;0.90;;
57389;SDS011;43217;52.694;6.214;2023-03-15T13:57:05;2.63;;;0.90;;
57389;SDS011;43217;52.694;6.214;2023-03-15T13:59:39;5.93;;;1.30;;
57389;SDS011;43217;52.694;6.214;2023-03-15T14:02:10;1.98;;;0.85;;
57389;SDS011;43217;52.694;6.214;2023-03-15T14:04:45;2.15;;;0.95;;
57389;SDS011;43217;52.694;6.214;2023-03-15T14:07:34;3.33;;;1.40;;
57389;SDS011;43217;52.694;6.214;2023-03-15T14:10:20;5.10;;;1.17;;
57389;SDS011;43217;52.694;6.214;2023-03-15T14:12:46;3.28;;;1.33;;
57389;SDS011;43217;52.694;6.214;2023-03-15T14:18:02;3.67;;;1.40;;
57389;SDS011;43217;52.694;6.214;2023-03-15T14:20:45;6.10;;;1.20;;
57389;SDS011;43217;52.694;6.214;2023-03-15T14:23:17;2.70;;;1.25;;
57389;SDS011;43217;52.694;6.214;2023-03-15T14:25:51;5.20;;;1.00;;
57389;SDS011;43217;52.694;6.214;2023-03-15T14:28:18;2.13;;;0.85;;
57389;SDS011;43217;52.694;6.214;2023-03-15T14:30:55;3.63;;;1.13;;
57389;SDS011;43217;52.694;6.214;2023-03-15T14:33:24;3.95;;;1.17;;
57389;SDS011;43217;52.694;6.214;2023-03-15T14:36:03;3.72;;;1.00;;
57389;SDS011;43217;52.694;6.214;2023-03-15T14:38:35;2.78;;;1.30;;
57389;SDS011;43217;52.694;6.214;2023-03-15T14:41:09;3.72;;;1.08;;
57389;SDS011;43217;52.694;6.214;2023-03-15T14:43:49;4.85;;;1.05;;
57389;SDS011;43217;52.694;6.214;2023-03-15T14:46:14;3.42;;;1.00;;
57389;SDS011;43217;52.694;6.214;2023-03-15T14:48:40;4.80;;;1.15;;
57389;SDS011;43217;52.694;6.214;2023-03-15T14:51:09;4.22;;;1.20;;
57389;SDS011;43217;52.694;6.214;2023-03-15T14:53:39;4.35;;;1.13;;
57389;SDS011;43217;52.694;6.214;2023-03-15T14:56:05;3.10;;;1.27;;
57389;SDS011;43217;52.694;6.214;2023-03-15T14:58:31;3.30;;;1.17;;
57389;SDS011;43217;52.694;6.214;2023-03-15T15:00:57;2.53;;;1.25;;
57389;SDS011;43217;52.694;6.214;2023-03-15T15:03:37;5.43;;;1.10;;
57389;SDS011;43217;52.694;6.214;2023-03-15T15:06:08;5.13;;;1.65;;
57389;SDS011;43217;52.694;6.214;2023-03-15T15:08:36;3.72;;;1.27;;
57389;SDS011;43217;52.694;6.214;2023-03-15T15:11:05;4.55;;;1.85;;
57389;SDS011;43217;52.694;6.214;2023-03-15T15:13:35;4.50;;;1.80;;
57389;SDS011;43217;52.694;6.214;2023-03-15T15:16:01;5.60;;;1.53;;
57389;SDS011;43217;52.694;6.214;2023-03-15T15:18:29;4.55;;;1.67;;
57389;SDS011;43217;52.694;6.214;2023-03-15T15:23:28;5.20;;;1.98;;
57389;SDS011;43217;52.694;6.214;2023-03-15T15:25:59;3.22;;;1.27;;
57389;SDS011;43217;52.694;6.214;2023-03-15T15:28:27;2.63;;;1.05;;
57389;SDS011;43217;52.694;6.214;2023-03-15T15:30:54;2.53;;;1.10;;
57389;SDS011;43217;52.694;6.214;2023-03-15T15:33:20;2.92;;;1.10;;
57389;SDS011;43217;52.694;6.214;2023-03-15T15:35:48;3.57;;;1.50;;
57389;SDS011;43217;52.694;6.214;2023-03-15T15:38:18;3.95;;;1.70;;
57389;SDS011;43217;52.694;6.214;2023-03-15T15:40:44;3.13;;;1.42;;
57389;SDS011;43217;52.694;6.214;2023-03-15T15:43:10;5.10;;;1.45;;
57389;SDS011;43217;52.694;6.214;2023-03-15T15:45:36;3.08;;;1.10;;
57389;SDS011;43217;52.694;6.214;2023-03-15T15:48:02;2.33;;;0.90;;
57389;SDS011;43217;52.694;6.214;2023-03-15T15:50:30;2.42;;;0.85;;
57389;SDS011;43217;52.694;6.214;2023-03-15T15:55:25;3.03;;;1.10;;
57389;SDS011;43217;52.694;6.214;2023-03-15T15:57:55;3.08;;;1.40;;
57389;SDS011;43217;52.694;6.214;2023-03-15T16:00:22;2.33;;;1.05;;
57389;SDS011;43217;52.694;6.214;2023-03-15T16:02:50;3.83;;;1.40;;
57389;SDS011;43217;52.694;6.214;2023-03-15T16:05:17;3.83;;;1.58;;
57389;SDS011;43217;52.694;6.214;2023-03-15T16:07:44;4.53;;;1.45;;
57389;SDS011;43217;52.694;6.214;2023-03-15T16:10:19;2.17;;;1.10;;
57389;SDS011;43217;52.694;6.214;2023-03-15T16:12:50;2.33;;;1.13;;
57389;SDS011;43217;52.694;6.214;2023-03-15T16:15:18;3.17;;;1.45;;
57389;SDS011;43217;52.694;6.214;2023-03-15T16:17:44;3.25;;;1.20;;
57389;SDS011;43217;52.694;6.214;2023-03-15T16:20:11;2.33;;;1.33;;
57389;SDS011;43217;52.694;6.214;2023-03-15T16:22:42;5.15;;;1.42;;